Gambler — LELC — position and weather

sailwx.info

Track history (hours):
 
Tides and Currents Weather Stations Pressure Air Temp Water Temp Dewpoint Dewpoint Depression Visibility Wind Speed Wind Dir Waves Ship Positions

Gambler

Last reported at 2014-Sep-06 07:07 UTC. Time now 2014-Sep-17 01:32 UTC.
Position N 65°29' W 000°46'.
Warning: this ship's position is 10 days out of date.

Length 70 m; draft 6 m.

Type: Fishing. MMSI: 258412000.

Date/timePositionNaut miles runAvg speedWind from/ knotsBaromVisibWave heightAir tempDewpointWater temp
2014-Sep-06 07:07N 65°29' W 000°46'15 3.4
2014-Sep-06 02:31N 65°20' W 001°17'  
2014-Sep-02 14:17N 59°29' E 005°04'811.2
2014-Sep-02 13:33N 59°24' E 005°16'1111.2
2014-Sep-02 12:32N 59°13' E 005°20'5 4.9
2014-Sep-02 11:33N 59°09' E 005°16'0 0.0
2014-Sep-02 10:33N 59°09' E 005°16'0 0.0
2014-Sep-02 09:33N 59°09' E 005°16'0 0.0
2014-Sep-02 08:33N 59°09' E 005°16'0 0.0
2014-Sep-02 07:33N 59°09' E 005°16'1 1.0
2014-Sep-02 06:33N 59°08' E 005°18'1110.6
2014-Sep-02 05:33N 59°19' E 005°20'169 9.7
2014-Sep-01 12:10N 62°07' E 004°40'810.3
2014-Sep-01 11:23N 62°13' E 004°28'18710.2
2014-Aug-31 17:05N 64°39' E 000°10'3 5.6
2014-Aug-31 16:32N 64°36' E 000°10'4 3.7
2014-Aug-31 15:32N 64°37' E 000°19'6 6.4
2014-Aug-31 14:32N 64°43' E 000°18'3 2.5
2014-Aug-31 13:32N 64°46' E 000°19'6 4.8
2014-Aug-31 12:20N 64°49' E 000°09'4 5.2
2014-Aug-31 11:32N 64°53' E 000°04'9 9.2
2014-Aug-31 10:32N 65°02' W 000°03'5 4.5
2014-Aug-31 09:29N 65°04' W 000°12'1 0.6
2014-Aug-31 08:32N 65°04' W 000°13'1 1.1
2014-Aug-31 07:32N 65°03' W 000°15'2 2.1
2014-Aug-31 06:32N 65°03' W 000°20'3 2.9
2014-Aug-31 05:32N 65°05' W 000°16'7 6.0
2014-Aug-31 04:26N 64°59' W 000°22'1 1.7
2014-Aug-31 03:32N 64°58' W 000°19'1 0.8
2014-Aug-31 02:29N 64°58' W 000°18'1 0.7
2014-Aug-31 01:26N 64°57' W 000°17'1 0.8
2014-Aug-31 00:32N 64°56' W 000°16'1 1.0
2014-Aug-30 23:32N 64°56' W 000°15'1 1.0
2014-Aug-30 22:32N 64°55' W 000°13'1 1.0
2014-Aug-30 21:23N 64°54' W 000°11'3 3.8
2014-Aug-30 20:32N 64°51' W 000°07'6 6.4
2014-Aug-30 19:32N 64°46' E 000°02'7 5.3
2014-Aug-30 18:17N 64°42' E 000°14'0 0.4
2014-Aug-30 17:23N 64°42' E 000°13'4 4.7
2014-Aug-30 16:32N 64°46' E 000°14'2 2.4
2014-Aug-30 15:32N 64°44' E 000°18'3 3.2
2014-Aug-30 14:29N 64°48' E 000°20'12 0.5
2014-Aug-29 15:29N 64°36' E 000°19'  
Track history (hours):
 
Tides and Currents Weather Stations Pressure Air Temp Water Temp Dewpoint Dewpoint Depression Visibility Wind Speed Wind Dir Waves Ship Positions

Gambler

Last reported at 2014-Sep-06 07:07 UTC. Time now 2014-Sep-17 01:32 UTC.
Position N 65°29' W 000°46'.
Warning: this ship's position is 10 days out of date.

Length 70 m; draft 6 m.

Type: Fishing. MMSI: 258412000.

Date/timePositionNaut miles runAvg speedWind from/ knotsBaromVisibWave heightAir tempDewpointWater temp
2014-Sep-06 07:07N 65°29' W 000°46'15 3.4
2014-Sep-06 02:31N 65°20' W 001°17'  
2014-Sep-02 14:17N 59°29' E 005°04'811.2
2014-Sep-02 13:33N 59°24' E 005°16'1111.2
2014-Sep-02 12:32N 59°13' E 005°20'5 4.9
2014-Sep-02 11:33N 59°09' E 005°16'0 0.0
2014-Sep-02 10:33N 59°09' E 005°16'0 0.0
2014-Sep-02 09:33N 59°09' E 005°16'0 0.0
2014-Sep-02 08:33N 59°09' E 005°16'0 0.0
2014-Sep-02 07:33N 59°09' E 005°16'1 1.0
2014-Sep-02 06:33N 59°08' E 005°18'1110.6
2014-Sep-02 05:33N 59°19' E 005°20'169 9.7
2014-Sep-01 12:10N 62°07' E 004°40'810.3
2014-Sep-01 11:23N 62°13' E 004°28'18710.2
2014-Aug-31 17:05N 64°39' E 000°10'3 5.6
2014-Aug-31 16:32N 64°36' E 000°10'4 3.7
2014-Aug-31 15:32N 64°37' E 000°19'6 6.4
2014-Aug-31 14:32N 64°43' E 000°18'3 2.5
2014-Aug-31 13:32N 64°46' E 000°19'6 4.8
2014-Aug-31 12:20N 64°49' E 000°09'4 5.2
2014-Aug-31 11:32N 64°53' E 000°04'9 9.2
2014-Aug-31 10:32N 65°02' W 000°03'5 4.5
2014-Aug-31 09:29N 65°04' W 000°12'1 0.6
2014-Aug-31 08:32N 65°04' W 000°13'1 1.1
2014-Aug-31 07:32N 65°03' W 000°15'2 2.1
2014-Aug-31 06:32N 65°03' W 000°20'3 2.9
2014-Aug-31 05:32N 65°05' W 000°16'7 6.0
2014-Aug-31 04:26N 64°59' W 000°22'1 1.7
2014-Aug-31 03:32N 64°58' W 000°19'1 0.8
2014-Aug-31 02:29N 64°58' W 000°18'1 0.7
2014-Aug-31 01:26N 64°57' W 000°17'1 0.8
2014-Aug-31 00:32N 64°56' W 000°16'1 1.0
2014-Aug-30 23:32N 64°56' W 000°15'1 1.0
2014-Aug-30 22:32N 64°55' W 000°13'1 1.0
2014-Aug-30 21:23N 64°54' W 000°11'3 3.8
2014-Aug-30 20:32N 64°51' W 000°07'6 6.4
2014-Aug-30 19:32N 64°46' E 000°02'7 5.3
2014-Aug-30 18:17N 64°42' E 000°14'0 0.4
2014-Aug-30 17:23N 64°42' E 000°13'4 4.7
2014-Aug-30 16:32N 64°46' E 000°14'2 2.4
2014-Aug-30 15:32N 64°44' E 000°18'3 3.2
2014-Aug-30 14:29N 64°48' E 000°20'12 0.5
2014-Aug-29 15:29N 64°36' E 000°19'  

Dump ship's entire track history